createdAt,value
2022-09-16T00:00:56.302Z,1.60
2022-09-16T00:03:24.157Z,1.30
2022-09-16T00:05:53.416Z,1.17
2022-09-16T00:08:22.667Z,1.02
2022-09-16T00:10:51.124Z,1.38
2022-09-16T00:13:19.710Z,1.20
2022-09-16T00:15:50.690Z,1.15
2022-09-16T00:18:21.346Z,1.13
2022-09-16T00:20:51.348Z,1.45
2022-09-16T00:23:20.425Z,1.23
2022-09-16T00:25:51.892Z,1.10
2022-09-16T00:28:20.056Z,1.20
2022-09-16T00:30:47.819Z,1.73
2022-09-16T00:33:15.609Z,1.40
2022-09-16T00:35:44.952Z,1.30
2022-09-16T00:38:12.695Z,1.10
2022-09-16T00:40:46.286Z,1.30
2022-09-16T00:43:15.016Z,1.27
2022-09-16T00:45:45.109Z,1.73
2022-09-16T00:48:17.898Z,1.60
2022-09-16T00:50:51.438Z,3.13
2022-09-16T00:53:24.140Z,1.80
2022-09-16T00:55:54.474Z,2.30
2022-09-16T00:58:26.050Z,1.45
2022-09-16T01:00:53.829Z,1.65
2022-09-16T01:03:22.044Z,1.60
2022-09-16T01:05:51.518Z,1.95
2022-09-16T01:08:19.326Z,1.60
2022-09-16T01:10:47.074Z,2.58
2022-09-16T01:13:16.632Z,1.85
2022-09-16T01:15:55.722Z,1.58
2022-09-16T01:18:31.812Z,1.70
2022-09-16T01:21:18.991Z,1.80
2022-09-16T01:24:17.321Z,1.63
2022-09-16T01:27:00.307Z,1.73
2022-09-16T01:29:41.673Z,1.80
2022-09-16T01:32:16.178Z,1.77
2022-09-16T01:34:52.756Z,1.63
2022-09-16T01:37:30.149Z,1.73
2022-09-16T01:40:06.656Z,1.75
2022-09-16T01:42:41.490Z,1.92
2022-09-16T01:45:18.116Z,1.80
2022-09-16T01:47:58.006Z,1.70
2022-09-16T01:50:31.112Z,2.08
2022-09-16T01:53:09.890Z,2.00
2022-09-16T01:55:42.090Z,2.30
2022-09-16T01:58:17.703Z,1.90
2022-09-16T02:03:20.297Z,2.20
2022-09-16T02:05:52.350Z,2.05
2022-09-16T02:08:33.323Z,2.10
2022-09-16T02:11:06.763Z,2.70
2022-09-16T02:13:36.908Z,2.10
2022-09-16T02:16:11.158Z,3.33
2022-09-16T02:18:43.074Z,2.40
2022-09-16T02:21:15.372Z,4.85
2022-09-16T02:23:47.520Z,3.35
2022-09-16T02:26:19.779Z,2.40
2022-09-16T02:28:51.663Z,2.60
2022-09-16T02:31:22.867Z,2.20
2022-09-16T02:33:56.999Z,1.98
2022-09-16T02:36:27.822Z,2.90
2022-09-16T02:39:01.858Z,2.10
2022-09-16T02:41:29.747Z,2.08
2022-09-16T02:43:57.630Z,1.83
2022-09-16T02:46:31.269Z,1.70
2022-09-16T02:49:10.746Z,1.70
2022-09-16T02:51:48.565Z,2.17
2022-09-16T02:54:24.919Z,2.00
2022-09-16T02:56:52.795Z,1.85
2022-09-16T02:59:20.568Z,1.88
2022-09-16T03:01:48.383Z,2.13
2022-09-16T03:04:20.092Z,4.57
2022-09-16T03:06:48.866Z,2.60
2022-09-16T03:09:19.062Z,2.65
2022-09-16T03:12:00.578Z,4.60
2022-09-16T03:14:44.095Z,2.58
2022-09-16T03:17:25.626Z,2.90
2022-09-16T03:20:05.304Z,2.80
2022-09-16T03:22:48.475Z,2.72
2022-09-16T03:25:29.830Z,2.28
2022-09-16T03:28:03.459Z,1.98
2022-09-16T03:30:37.134Z,1.90
2022-09-16T03:33:14.957Z,2.30
2022-09-16T03:35:48.425Z,2.80
2022-09-16T03:38:18.137Z,2.70
2022-09-16T03:40:48.434Z,3.25
2022-09-16T03:43:17.220Z,3.20
2022-09-16T03:45:45.118Z,3.00
2022-09-16T03:48:14.339Z,4.97
2022-09-16T03:50:42.087Z,6.28
2022-09-16T03:53:11.218Z,3.80
2022-09-16T03:55:38.949Z,3.35
2022-09-16T03:58:06.705Z,3.20
2022-09-16T04:00:34.673Z,2.60
2022-09-16T04:03:02.450Z,2.90
2022-09-16T04:05:30.900Z,2.60
2022-09-16T04:07:59.090Z,2.60
2022-09-16T04:10:28.256Z,3.55
2022-09-16T04:12:58.731Z,2.55
2022-09-16T04:15:26.539Z,3.97
2022-09-16T04:17:56.165Z,3.03
2022-09-16T04:20:24.065Z,3.00
2022-09-16T04:22:51.789Z,3.25
2022-09-16T04:25:19.512Z,3.20
2022-09-16T04:27:48.655Z,3.40
2022-09-16T04:30:16.406Z,2.60
2022-09-16T04:32:44.149Z,2.60
2022-09-16T04:35:11.868Z,2.60
2022-09-16T04:37:39.634Z,2.38
2022-09-16T04:40:08.136Z,2.20
2022-09-16T04:42:36.218Z,2.08
2022-09-16T04:45:06.333Z,1.98
2022-09-16T04:47:34.306Z,2.08
2022-09-16T04:50:02.044Z,2.10
2022-09-16T04:52:31.420Z,2.00
2022-09-16T04:54:59.136Z,2.90
2022-09-16T04:57:26.852Z,2.20
2022-09-16T04:59:54.594Z,3.10
2022-09-16T05:02:23.680Z,2.67
2022-09-16T05:04:51.448Z,2.28
2022-09-16T05:07:19.213Z,2.30
2022-09-16T05:09:47.128Z,3.85
2022-09-16T05:12:15.121Z,2.30
2022-09-16T05:14:42.835Z,4.35
2022-09-16T05:17:10.551Z,2.80
2022-09-16T05:19:39.694Z,2.08
2022-09-16T05:22:07.457Z,2.17
2022-09-16T05:24:36.406Z,1.90
2022-09-16T05:27:04.479Z,2.20
2022-09-16T05:29:32.333Z,1.88
2022-09-16T05:32:00.829Z,2.22
2022-09-16T05:34:28.689Z,2.30
2022-09-16T05:36:58.602Z,1.80
2022-09-16T05:39:26.809Z,1.92
2022-09-16T05:41:56.563Z,1.88
2022-09-16T05:44:24.371Z,2.17
2022-09-16T05:46:52.157Z,1.83
2022-09-16T05:49:20.894Z,2.00
2022-09-16T05:51:49.793Z,2.30
2022-09-16T05:54:19.895Z,1.92
2022-09-16T05:56:48.517Z,1.80
2022-09-16T05:59:17.777Z,1.80
2022-09-16T06:01:45.859Z,1.90
2022-09-16T06:04:16.541Z,1.85
2022-09-16T06:06:45.370Z,1.65
2022-09-16T06:09:15.789Z,1.98
2022-09-16T06:11:47.608Z,1.98
2022-09-16T06:14:16.348Z,2.20
2022-09-16T06:16:44.565Z,1.90
2022-09-16T06:19:14.342Z,1.75
2022-09-16T06:21:43.627Z,1.48
2022-09-16T06:24:12.673Z,1.70
2022-09-16T06:26:42.816Z,1.77
2022-09-16T06:29:12.876Z,1.60
2022-09-16T06:31:40.941Z,1.40
2022-09-16T06:34:12.989Z,1.90
2022-09-16T06:36:44.808Z,1.58
2022-09-16T06:39:14.235Z,1.83
2022-09-16T06:41:42.112Z,4.88
2022-09-16T06:44:10.044Z,1.70
2022-09-16T06:46:39.412Z,1.60
2022-09-16T06:49:07.153Z,1.67
2022-09-16T06:51:37.134Z,1.63
2022-09-16T06:54:07.916Z,1.25
2022-09-16T06:56:39.073Z,1.63
2022-09-16T06:59:07.266Z,1.60
2022-09-16T07:01:35.579Z,1.80
2022-09-16T07:04:07.468Z,1.70
2022-09-16T07:07:05.222Z,1.83
2022-09-16T07:09:23.424Z,1.63
2022-09-16T07:11:51.153Z,1.80
2022-09-16T07:14:18.949Z,2.08
2022-09-16T07:16:46.798Z,1.58
2022-09-16T07:19:15.892Z,1.75
2022-09-16T07:21:43.627Z,1.58
2022-09-16T07:24:13.543Z,1.60
2022-09-16T07:26:43.144Z,1.70
2022-09-16T07:29:12.753Z,1.58
2022-09-16T07:31:40.571Z,2.00
2022-09-16T07:34:10.494Z,1.60
2022-09-16T07:36:41.587Z,1.50
2022-09-16T07:39:10.873Z,1.40
2022-09-16T07:41:41.235Z,1.77
2022-09-16T07:44:12.175Z,1.15
2022-09-16T07:46:40.370Z,1.10
2022-09-16T07:49:10.135Z,1.42
2022-09-16T07:51:39.116Z,1.10
2022-09-16T07:54:09.573Z,1.50
2022-09-16T07:56:39.546Z,1.10
2022-09-16T07:59:11.042Z,0.93
2022-09-16T08:01:43.364Z,1.10
2022-09-16T08:04:12.237Z,1.10
2022-09-16T08:06:41.766Z,1.40
2022-09-16T08:09:36.849Z,1.50
2022-09-16T08:11:57.194Z,1.00
2022-09-16T08:14:25.191Z,1.20
2022-09-16T08:16:52.968Z,1.38
2022-09-16T08:19:22.488Z,1.40
2022-09-16T08:21:52.630Z,1.23
2022-09-16T08:24:20.598Z,1.10
2022-09-16T08:26:48.370Z,1.00
2022-09-16T08:29:16.538Z,1.33
2022-09-16T08:31:44.661Z,1.60
2022-09-16T08:34:12.494Z,1.20
2022-09-16T08:36:40.303Z,1.25
2022-09-16T08:39:11.275Z,1.33
2022-09-16T08:42:00.122Z,1.10
2022-09-16T08:44:36.678Z,1.50
2022-09-16T08:47:10.100Z,1.50
2022-09-16T08:49:44.174Z,1.35
2022-09-16T08:52:19.700Z,1.05
2022-09-16T08:54:52.799Z,1.00
2022-09-16T08:57:23.335Z,1.00
2022-09-16T08:59:58.711Z,1.60
2022-09-16T09:05:04.417Z,1.35
2022-09-16T09:07:46.297Z,1.10
2022-09-16T09:10:26.546Z,1.30
2022-09-16T09:13:01.324Z,1.20
2022-09-16T09:18:24.194Z,1.00
2022-09-16T09:20:59.940Z,0.98
2022-09-16T09:23:50.602Z,1.30
2022-09-16T09:26:23.031Z,0.80
2022-09-16T09:29:11.840Z,0.88
2022-09-16T09:31:48.245Z,1.20
2022-09-16T09:34:34.957Z,0.90
2022-09-16T09:37:19.399Z,1.00
2022-09-16T09:40:07.345Z,0.90
2022-09-16T09:42:41.577Z,0.82
2022-09-16T09:45:20.277Z,0.85
2022-09-16T09:47:52.127Z,0.88
2022-09-16T09:50:24.876Z,0.60
2022-09-16T09:52:59.905Z,0.77
2022-09-16T09:55:32.572Z,0.70
2022-09-16T09:58:17.798Z,0.90
2022-09-16T10:00:45.858Z,0.85
2022-09-16T10:03:16.481Z,0.80
2022-09-16T10:05:46.349Z,1.13
2022-09-16T10:08:20.325Z,4.35
2022-09-16T10:10:51.414Z,1.15
2022-09-16T10:13:21.952Z,1.02
2022-09-16T10:15:54.810Z,0.82
2022-09-16T10:18:27.400Z,1.17
2022-09-16T10:21:05.524Z,1.10
2022-09-16T10:23:34.388Z,1.40
2022-09-16T10:26:19.247Z,1.27
2022-09-16T10:31:33.695Z,0.82
2022-09-16T10:34:04.096Z,0.70
2022-09-16T10:36:35.920Z,0.80
2022-09-16T10:39:05.943Z,1.08
2022-09-16T10:41:36.122Z,1.00
2022-09-16T10:44:17.170Z,0.70
2022-09-16T10:46:52.625Z,0.80
2022-09-16T10:51:49.565Z,0.80
2022-09-16T10:54:25.935Z,0.80
2022-09-16T10:56:53.748Z,0.88
2022-09-16T10:59:23.017Z,0.80
2022-09-16T11:02:02.477Z,0.75
2022-09-16T11:04:48.340Z,0.70
2022-09-16T11:07:28.890Z,0.90
2022-09-16T11:10:06.001Z,0.70
2022-09-16T11:13:09.968Z,0.88
2022-09-16T11:15:53.422Z,0.90
2022-09-16T11:18:37.383Z,1.98
2022-09-16T11:21:26.891Z,1.20
2022-09-16T11:24:09.294Z,1.00
2022-09-16T11:26:46.395Z,1.00
2022-09-16T11:29:27.285Z,0.75
2022-09-16T11:32:04.214Z,0.60
2022-09-16T11:34:44.694Z,0.70
2022-09-16T11:37:22.667Z,0.90
2022-09-16T11:40:04.030Z,0.60
2022-09-16T11:42:35.843Z,0.52
2022-09-16T11:45:17.517Z,0.82
2022-09-16T11:48:04.600Z,0.68
2022-09-16T11:50:43.826Z,0.98
2022-09-16T11:53:39.697Z,1.77
2022-09-16T11:56:14.416Z,0.88
2022-09-16T11:58:47.670Z,0.60
2022-09-16T12:01:29.027Z,0.70
2022-09-16T12:04:04.340Z,0.68
2022-09-16T12:06:39.367Z,0.80
2022-09-16T12:09:13.375Z,0.60
2022-09-16T12:11:46.590Z,0.70
2022-09-16T12:14:18.588Z,0.80
2022-09-16T12:16:51.353Z,1.20
2022-09-16T12:19:24.274Z,0.90
2022-09-16T12:21:57.930Z,1.05
2022-09-16T12:24:32.267Z,1.20
2022-09-16T12:27:07.011Z,0.88
2022-09-16T12:29:42.056Z,0.80
2022-09-16T12:34:45.331Z,0.70
2022-09-16T12:37:23.824Z,0.70
2022-09-16T12:39:51.880Z,0.80
2022-09-16T12:42:50.230Z,0.80
2022-09-16T12:45:35.605Z,0.50
2022-09-16T12:48:25.448Z,0.60
2022-09-16T12:51:22.678Z,0.63
2022-09-16T12:54:16.385Z,0.82
2022-09-16T12:57:19.920Z,1.30
2022-09-16T13:00:00.119Z,0.90
2022-09-16T13:02:34.144Z,0.75
2022-09-16T13:05:14.326Z,1.02
2022-09-16T13:07:43.606Z,0.75
2022-09-16T13:10:26.423Z,0.60
2022-09-16T13:13:05.583Z,0.30
2022-09-16T13:15:35.185Z,0.93
2022-09-16T13:18:09.936Z,0.60
2022-09-16T13:20:42.235Z,0.70
2022-09-16T13:23:18.095Z,0.75
2022-09-16T13:25:51.157Z,1.60
2022-09-16T13:28:28.176Z,1.55
2022-09-16T13:30:56.316Z,1.20
2022-09-16T13:33:28.979Z,1.20
2022-09-16T13:36:29.671Z,1.00
2022-09-16T13:39:00.493Z,1.10
2022-09-16T13:41:35.112Z,1.70
2022-09-16T13:44:04.943Z,1.40
2022-09-16T13:46:35.814Z,0.90
2022-09-16T13:49:28.232Z,0.90
2022-09-16T13:51:56.237Z,0.95
2022-09-16T13:54:30.060Z,0.93
2022-09-16T13:57:22.075Z,0.95
2022-09-16T14:00:05.985Z,0.80
2022-09-16T14:02:51.085Z,1.02
2022-09-16T14:08:09.635Z,0.70
2022-09-16T14:10:46.840Z,1.83
2022-09-16T14:13:17.106Z,1.35
2022-09-16T14:15:49.293Z,1.00
2022-09-16T14:18:19.811Z,1.00
2022-09-16T14:21:00.360Z,1.10
2022-09-16T14:23:28.958Z,0.88
2022-09-16T14:26:10.232Z,0.88
2022-09-16T14:28:39.414Z,0.75
2022-09-16T14:31:09.902Z,0.60
2022-09-16T14:33:41.159Z,1.17
2022-09-16T14:36:13.457Z,1.55
2022-09-16T14:38:46.587Z,0.82
2022-09-16T14:41:24.164Z,0.70
2022-09-16T14:43:52.907Z,0.52
2022-09-16T14:46:20.786Z,0.93
2022-09-16T14:48:49.523Z,0.90
2022-09-16T14:51:22.966Z,0.90
2022-09-16T14:54:14.047Z,1.02
2022-09-16T14:56:43.349Z,1.30
2022-09-16T14:59:13.801Z,0.90
2022-09-16T15:01:42.730Z,1.00
2022-09-16T15:04:18.346Z,0.90
2022-09-16T15:06:52.724Z,0.90
2022-09-16T15:09:27.511Z,1.10
2022-09-16T15:12:00.401Z,2.28
2022-09-16T15:14:28.947Z,1.20
2022-09-16T15:17:01.092Z,0.82
2022-09-16T15:19:34.252Z,0.90
2022-09-16T15:22:02.771Z,1.10
2022-09-16T15:24:33.307Z,0.75
2022-09-16T15:27:03.657Z,1.10
2022-09-16T15:29:34.068Z,0.73
2022-09-16T15:32:17.969Z,0.80
2022-09-16T15:34:46.289Z,0.70
2022-09-16T15:37:32.287Z,0.82
2022-09-16T15:40:33.638Z,1.45
2022-09-16T15:43:21.846Z,0.88
2022-09-16T15:46:00.014Z,0.60
2022-09-16T15:48:32.156Z,1.10
2022-09-16T15:51:05.090Z,0.80
2022-09-16T15:53:48.379Z,0.93
2022-09-16T15:56:26.541Z,0.88
2022-09-16T15:58:58.966Z,0.70
2022-09-16T16:01:40.547Z,0.88
2022-09-16T16:04:11.773Z,0.60
2022-09-16T16:06:49.283Z,1.75
2022-09-16T16:09:44.054Z,2.47
2022-09-16T16:12:14.384Z,1.42
2022-09-16T16:14:44.324Z,1.25
2022-09-16T16:17:14.760Z,1.00
2022-09-16T16:19:43.623Z,0.80
2022-09-16T16:22:12.241Z,0.80
2022-09-16T16:24:40.222Z,1.85
2022-09-16T16:27:08.501Z,0.75
2022-09-16T16:29:36.293Z,0.70
2022-09-16T16:32:10.436Z,0.60
2022-09-16T16:34:40.439Z,0.88
2022-09-16T16:37:09.692Z,0.73
2022-09-16T16:39:37.893Z,0.82
2022-09-16T16:42:06.737Z,2.05
2022-09-16T16:44:34.822Z,1.02
2022-09-16T16:47:02.857Z,0.60
2022-09-16T16:49:32.314Z,0.73
2022-09-16T16:52:00.036Z,0.77
2022-09-16T16:54:28.895Z,0.90
2022-09-16T16:56:58.730Z,0.77
2022-09-16T16:59:27.521Z,1.05
2022-09-16T17:01:56.926Z,0.82
2022-09-16T17:04:26.105Z,1.50
2022-09-16T17:07:21.414Z,1.55
2022-09-16T17:09:43.053Z,0.98
2022-09-16T17:12:10.766Z,0.88
2022-09-16T17:14:38.722Z,0.80
2022-09-16T17:17:06.514Z,1.00
2022-09-16T17:19:34.273Z,0.93
2022-09-16T17:22:03.422Z,0.80
2022-09-16T17:24:31.293Z,1.00
2022-09-16T17:26:59.136Z,1.17
2022-09-16T17:29:26.903Z,1.00
2022-09-16T17:31:56.819Z,0.90
2022-09-16T17:34:26.237Z,0.77
2022-09-16T17:36:54.786Z,0.82
2022-09-16T17:39:24.119Z,0.90
2022-09-16T17:41:52.062Z,0.73
2022-09-16T17:44:20.482Z,0.80
2022-09-16T17:46:48.480Z,0.98
2022-09-16T17:49:18.151Z,0.70
2022-09-16T17:51:45.934Z,1.00
2022-09-16T17:54:14.000Z,1.45
2022-09-16T17:56:43.958Z,0.70
2022-09-16T17:59:12.916Z,1.30
2022-09-16T18:01:40.781Z,1.55
2022-09-16T18:04:08.811Z,1.00
2022-09-16T18:06:51.495Z,0.80
2022-09-16T18:09:19.345Z,0.65
2022-09-16T18:11:48.713Z,2.03
2022-09-16T18:14:20.135Z,0.90
2022-09-16T18:16:50.764Z,0.88
2022-09-16T18:19:18.525Z,1.10
2022-09-16T18:21:46.275Z,1.10
2022-09-16T18:24:14.209Z,0.93
2022-09-16T18:26:45.151Z,1.10
2022-09-16T18:29:15.136Z,1.25
2022-09-16T18:31:47.359Z,1.23
2022-09-16T18:34:16.825Z,1.27
2022-09-16T18:36:44.814Z,1.33
2022-09-16T18:39:15.133Z,1.20
2022-09-16T18:41:44.286Z,1.17
2022-09-16T18:44:15.711Z,1.48
2022-09-16T18:46:43.915Z,1.35
2022-09-16T18:49:13.519Z,1.30
2022-09-16T18:51:46.096Z,1.48
2022-09-16T18:54:19.360Z,1.20
2022-09-16T18:56:47.213Z,1.08
2022-09-16T18:59:22.025Z,1.20
2022-09-16T19:01:52.615Z,1.20
2022-09-16T19:04:22.782Z,1.33
2022-09-16T19:06:52.959Z,1.70
2022-09-16T19:09:22.248Z,2.20
2022-09-16T19:11:50.492Z,1.20
2022-09-16T19:14:22.313Z,1.40
2022-09-16T19:16:50.150Z,1.17
2022-09-16T19:19:17.841Z,1.40
2022-09-16T19:21:45.541Z,1.30
2022-09-16T19:24:16.385Z,1.30
2022-09-16T19:26:45.356Z,1.80
2022-09-16T19:29:14.731Z,1.80
2022-09-16T19:31:45.763Z,1.27
2022-09-16T19:34:15.444Z,1.55
2022-09-16T19:36:44.245Z,1.80
2022-09-16T19:39:13.250Z,1.65
2022-09-16T19:41:42.432Z,1.60
2022-09-16T19:44:13.052Z,1.45
2022-09-16T19:46:44.622Z,1.90
2022-09-16T19:49:16.852Z,1.60
2022-09-16T19:51:44.757Z,1.52
2022-09-16T19:54:13.014Z,2.08
2022-09-16T19:56:41.025Z,1.60
2022-09-16T19:59:08.887Z,1.80
2022-09-16T20:01:37.902Z,1.70
2022-09-16T20:04:09.035Z,1.75
2022-09-16T20:06:38.787Z,1.50
2022-09-16T20:09:11.410Z,1.83
2022-09-16T20:11:41.544Z,1.80
2022-09-16T20:14:14.413Z,1.70
2022-09-16T20:16:43.064Z,1.77
2022-09-16T20:19:14.438Z,1.50
2022-09-16T20:21:42.822Z,1.80
2022-09-16T20:24:15.615Z,1.73
2022-09-16T20:26:43.633Z,1.33
2022-09-16T20:29:11.395Z,1.85
2022-09-16T20:31:39.518Z,1.55
2022-09-16T20:34:07.430Z,1.73
2022-09-16T20:36:39.975Z,1.60
2022-09-16T20:39:08.866Z,1.55
2022-09-16T20:41:38.122Z,1.50
2022-09-16T20:44:06.560Z,1.90
2022-09-16T20:46:36.597Z,1.55
2022-09-16T20:49:06.663Z,1.58
2022-09-16T20:51:35.599Z,1.30
2022-09-16T20:54:07.759Z,1.55
2022-09-16T20:56:38.820Z,1.50
2022-09-16T20:59:08.784Z,1.55
2022-09-16T21:01:38.168Z,1.45
2022-09-16T21:04:07.545Z,1.40
2022-09-16T21:06:36.398Z,1.70
2022-09-16T21:09:07.353Z,1.27
2022-09-16T21:11:35.562Z,1.80
2022-09-16T21:14:06.726Z,1.65
2022-09-16T21:16:36.266Z,1.55
2022-09-16T21:19:09.163Z,1.90
2022-09-16T21:21:38.608Z,1.70
2022-09-16T21:24:09.718Z,1.80
2022-09-16T21:26:39.232Z,1.88
2022-09-16T21:29:10.997Z,1.80
2022-09-16T21:31:40.598Z,1.90
2022-09-16T21:34:12.457Z,1.60
2022-09-16T21:36:40.898Z,1.80
2022-09-16T21:39:09.994Z,1.50
2022-09-16T21:41:38.501Z,1.95
2022-09-16T21:44:06.616Z,1.90
2022-09-16T21:46:39.454Z,1.63
2022-09-16T21:49:07.836Z,1.83
2022-09-16T21:51:38.271Z,1.92
2022-09-16T21:54:08.024Z,1.80
2022-09-16T21:56:40.288Z,1.85
2022-09-16T21:59:08.890Z,1.80
2022-09-16T22:01:38.105Z,1.95
2022-09-16T22:04:07.936Z,2.35
2022-09-16T22:06:35.923Z,1.70
2022-09-16T22:09:07.652Z,2.10
2022-09-16T22:11:40.516Z,1.98
2022-09-16T22:14:10.757Z,2.22
2022-09-16T22:16:39.783Z,2.22
2022-09-16T22:19:09.694Z,2.13
2022-09-16T22:21:41.482Z,2.00
2022-09-16T22:24:09.921Z,1.95
2022-09-16T22:26:39.789Z,1.90
2022-09-16T22:29:09.320Z,2.00
2022-09-16T22:31:38.849Z,1.90
2022-09-16T22:34:06.910Z,2.00
2022-09-16T22:36:36.188Z,1.92
2022-09-16T22:39:07.024Z,1.90
2022-09-16T22:41:35.449Z,2.00
2022-09-16T22:44:05.212Z,1.83
2022-09-16T22:46:39.872Z,1.95
2022-09-16T22:49:08.010Z,1.58
2022-09-16T22:51:35.978Z,1.70
2022-09-16T22:54:03.751Z,1.73
2022-09-16T22:56:33.907Z,1.52
2022-09-16T22:59:06.326Z,1.55
2022-09-16T23:01:36.339Z,1.80
2022-09-16T23:04:05.557Z,1.65
2022-09-16T23:06:34.852Z,1.60
2022-09-16T23:09:02.960Z,1.48
2022-09-16T23:11:32.506Z,1.42
2022-09-16T23:14:01.384Z,1.70
2022-09-16T23:16:32.759Z,1.55
2022-09-16T23:19:03.133Z,1.88
2022-09-16T23:21:31.579Z,1.65
2022-09-16T23:24:02.003Z,2.38
2022-09-16T23:26:31.564Z,1.85
2022-09-16T23:29:00.943Z,1.55
2022-09-16T23:31:31.834Z,1.48
2022-09-16T23:34:00.928Z,1.90
2022-09-16T23:36:29.545Z,2.00
2022-09-16T23:38:57.389Z,2.03
2022-09-16T23:41:27.235Z,2.10
2022-09-16T23:43:56.675Z,1.70
2022-09-16T23:46:26.051Z,1.67
2022-09-16T23:48:55.350Z,2.40
2022-09-16T23:51:28.262Z,1.63
2022-09-16T23:53:57.514Z,1.63
2022-09-16T23:56:25.355Z,1.70
2022-09-16T23:58:53.421Z,1.83
